Time;durP1;ratioP1;P1;durP2;ratioP2;P2;SDS_P1;SDS_P2;PMS_P1;PMS_P2;Temp;Humidity;BMP_temperature;BMP_pressure;BME280_temperature;BME280_humidity;BME280_pressure;Samples;Min_cycle;Max_cycle;Signal;HPM_P1;HPM_P2
2022/08/27 00:01:12;;;;;;;8.25;4.60;;;15.30;99.90;;;;;;5071824;28;20083;-45
2022/08/27 00:03:38;;;;;;;10.48;4.50;;;15.30;99.90;;;;;;5072222;28;20123;-46
2022/08/27 00:06:04;;;;;;;9.88;4.78;;;15.30;99.90;;;;;;5070665;28;20135;-45
2022/08/27 00:08:29;;;;;;;12.05;4.68;;;15.30;99.90;;;;;;5072257;28;20089;-46
2022/08/27 00:10:56;;;;;;;7.90;4.00;;;15.20;99.90;;;;;;5071549;28;20494;-45
2022/08/27 00:13:21;;;;;;;9.55;4.43;;;15.20;99.90;;;;;;5070474;28;20058;-45
2022/08/27 00:15:48;;;;;;;6.20;3.85;;;15.20;99.90;;;;;;5071887;28;20044;-48
2022/08/27 00:18:14;;;;;;;9.05;4.85;;;15.20;99.90;;;;;;5053701;28;20118;-46
2022/08/27 00:20:39;;;;;;;6.85;4.47;;;15.10;99.90;;;;;;5071781;28;20040;-47
2022/08/27 00:23:05;;;;;;;6.07;4.25;;;15.20;99.90;;;;;;5071421;28;20059;-50
2022/08/27 00:25:31;;;;;;;8.07;4.32;;;15.20;99.90;;;;;;5071598;28;20044;-51
2022/08/27 00:27:56;;;;;;;8.82;4.93;;;15.10;99.90;;;;;;5070298;28;20025;-49
2022/08/27 00:30:23;;;;;;;8.15;4.22;;;15.10;99.90;;;;;;5071586;28;20036;-44
2022/08/27 00:32:49;;;;;;;8.75;4.13;;;15.10;99.90;;;;;;5071371;28;20037;-46
2022/08/27 00:35:15;;;;;;;8.13;4.28;;;15.00;99.90;;;;;;5069622;28;20238;-45
2022/08/27 00:37:42;;;;;;;11.00;4.20;;;15.10;99.90;;;;;;5071596;28;20028;-46
2022/08/27 00:40:13;;;;;;;8.55;4.47;;;15.00;99.90;;;;;;5071243;28;20037;-45
2022/08/27 00:42:41;;;;;;;9.02;4.70;;;14.90;99.90;;;;;;5070314;28;20089;-47
2022/08/27 00:45:07;;;;;;;8.55;4.00;;;15.00;99.90;;;;;;5070930;28;20127;-48
2022/08/27 00:47:39;;;;;;;9.80;5.07;;;14.90;99.90;;;;;;5071110;28;20048;-48
2022/08/27 00:50:09;;;;;;;6.15;3.85;;;14.90;99.90;;;;;;5071178;28;20064;-45
2022/08/27 00:52:57;;;;;;;13.80;4.28;;;14.80;99.90;;;;;;5070763;28;20043;-47
2022/08/27 00:55:32;;;;;;;9.10;4.53;;;14.80;99.90;;;;;;5069843;28;20108;-45
2022/08/27 00:58:15;;;;;;;8.77;4.57;;;14.90;99.90;;;;;;5071092;28;20147;-48
2022/08/27 01:00:42;;;;;;;8.95;4.82;;;14.90;99.90;;;;;;5071235;28;20089;-50
2022/08/27 01:03:08;;;;;;;10.10;4.78;;;14.70;99.90;;;;;;5071071;28;20540;-45
2022/08/27 01:05:35;;;;;;;8.85;5.03;;;14.80;99.90;;;;;;5070727;28;20101;-46
2022/08/27 01:08:08;;;;;;;7.68;5.40;;;14.80;99.90;;;;;;5071034;28;20127;-45
2022/08/27 01:10:34;;;;;;;10.75;5.43;;;14.80;99.90;;;;;;5070188;28;20036;-45
2022/08/27 01:13:00;;;;;;;10.05;5.43;;;14.70;99.90;;;;;;5069365;28;20142;-45
2022/08/27 01:15:27;;;;;;;9.57;4.78;;;14.70;99.90;;;;;;5070711;28;20629;-46
2022/08/27 01:17:53;;;;;;;9.55;5.68;;;14.80;99.90;;;;;;5070721;28;20480;-45
2022/08/27 01:20:28;;;;;;;9.00;4.93;;;14.70;99.90;;;;;;5068971;28;20043;-50
2022/08/27 01:22:56;;;;;;;8.18;4.85;;;14.80;99.90;;;;;;5070555;28;20024;-48
2022/08/27 01:25:23;;;;;;;9.80;5.65;;;14.70;99.90;;;;;;5068955;28;20125;-48
2022/08/27 01:27:51;;;;;;;7.75;5.03;;;14.70;99.90;;;;;;5070194;28;20028;-47
2022/08/27 01:30:19;;;;;;;6.38;4.85;;;14.70;99.90;;;;;;5070489;28;20122;-46
2022/08/27 01:32:45;;;;;;;7.68;5.15;;;14.70;99.90;;;;;;5069964;28;20046;-46
2022/08/27 01:35:12;;;;;;;7.53;4.90;;;14.70;99.90;;;;;;5070445;28;20029;-47
2022/08/27 01:37:40;;;;;;;9.52;5.55;;;14.60;99.90;;;;;;5070377;28;20119;-49
2022/08/27 01:40:07;;;;;;;11.68;6.43;;;14.70;99.90;;;;;;5069952;28;20572;-46
2022/08/27 01:42:36;;;;;;;9.00;5.75;;;14.60;99.90;;;;;;5069861;28;20047;-47
2022/08/27 01:45:09;;;;;;;10.95;6.18;;;14.60;99.90;;;;;;5070057;28;20048;-47
2022/08/27 01:47:36;;;;;;;8.65;6.10;;;14.60;99.90;;;;;;5070173;28;20407;-47
2022/08/27 01:50:10;;;;;;;10.63;5.80;;;14.50;99.90;;;;;;5070205;28;20040;-46
2022/08/27 01:52:35;;;;;;;10.32;5.35;;;14.40;99.90;;;;;;5070297;28;20499;-46
2022/08/27 01:55:03;;;;;;;8.70;5.53;;;14.40;99.90;;;;;;5070217;28;20068;-46
2022/08/27 01:57:28;;;;;;;8.27;5.78;;;14.50;99.90;;;;;;5069965;28;20452;-49
2022/08/27 01:59:56;;;;;;;9.05;5.85;;;14.50;99.90;;;;;;5069973;28;20036;-45
2022/08/27 02:02:23;;;;;;;11.15;6.68;;;14.40;99.90;;;;;;5069969;28;20040;-47
2022/08/27 02:04:50;;;;;;;10.57;5.93;;;14.40;99.90;;;;;;5069932;28;20055;-49
2022/08/27 02:07:17;;;;;;;8.77;5.97;;;14.40;99.90;;;;;;5068706;28;20040;-46
2022/08/27 02:09:42;;;;;;;9.18;5.40;;;14.40;99.90;;;;;;5069238;28;20055;-47
2022/08/27 02:12:08;;;;;;;9.85;5.97;;;14.30;99.90;;;;;;5070126;28;20543;-46
2022/08/27 02:14:34;;;;;;;10.30;6.13;;;14.30;99.90;;;;;;5070009;28;20044;-44
2022/08/27 02:17:01;;;;;;;8.57;5.40;;;14.20;99.90;;;;;;5069936;28;20040;-50
2022/08/27 02:19:27;;;;;;;9.48;5.80;;;14.20;99.90;;;;;;5069501;28;20048;-45
2022/08/27 02:21:53;;;;;;;10.27;6.25;;;14.10;99.90;;;;;;5066971;28;20071;-48
2022/08/27 02:24:19;;;;;;;9.85;6.20;;;14.10;99.90;;;;;;5070079;28;20070;-45
2022/08/27 02:26:45;;;;;;;8.95;5.65;;;14.20;99.90;;;;;;5069634;28;20571;-48
2022/08/27 02:29:10;;;;;;;9.60;5.85;;;14.10;99.90;;;;;;5069957;28;20131;-45
2022/08/27 02:31:36;;;;;;;9.15;5.85;;;14.00;99.90;;;;;;5069724;28;20044;-45
2022/08/27 02:34:02;;;;;;;10.07;5.28;;;14.10;99.90;;;;;;5069609;28;20071;-47
2022/08/27 02:36:28;;;;;;;12.38;6.32;;;14.10;99.90;;;;;;5069630;28;20098;-46
2022/08/27 02:38:55;;;;;;;9.27;6.13;;;14.10;99.90;;;;;;5069832;28;20433;-48
2022/08/27 02:41:21;;;;;;;10.18;6.22;;;14.10;99.90;;;;;;5069437;28;20495;-50
2022/08/27 02:43:47;;;;;;;7.40;5.47;;;14.10;99.90;;;;;;5051775;28;20052;-50
2022/08/27 02:46:13;;;;;;;8.95;5.43;;;14.10;99.90;;;;;;5069321;28;20052;-46
2022/08/27 02:48:39;;;;;;;9.90;5.82;;;14.10;99.90;;;;;;5069622;28;20146;-46
2022/08/27 02:51:06;;;;;;;10.52;5.05;;;14.10;99.90;;;;;;5069366;28;20353;-46
2022/08/27 02:53:32;;;;;;;10.48;6.07;;;14.10;99.90;;;;;;5069660;28;20115;-45
2022/08/27 02:55:58;;;;;;;10.30;6.13;;;14.00;99.90;;;;;;5069687;28;20060;-45
2022/08/27 02:58:24;;;;;;;9.13;5.75;;;14.00;99.90;;;;;;5069260;28;20115;-45
2022/08/27 03:00:50;;;;;;;9.77;4.93;;;14.00;99.90;;;;;;5069457;28;20043;-48
2022/08/27 03:03:16;;;;;;;8.63;6.10;;;13.90;99.90;;;;;;5069540;28;20118;-52
2022/08/27 03:05:42;;;;;;;8.88;6.38;;;13.90;99.90;;;;;;5069162;28;20045;-50
2022/08/27 03:08:08;;;;;;;12.98;6.32;;;14.00;99.90;;;;;;5068586;28;20048;-50
2022/08/27 03:10:35;;;;;;;10.50;6.10;;;13.90;99.90;;;;;;5069262;28;20040;-49
2022/08/27 03:13:01;;;;;;;10.80;6.35;;;13.90;99.90;;;;;;5069382;28;20161;-47
2022/08/27 03:15:27;;;;;;;10.63;5.82;;;13.90;99.90;;;;;;5069632;28;20356;-46
2022/08/27 03:20:39;;;;;;;;;;;13.90;99.90;;;;;;5068278;28;20167;-47
2022/08/27 03:23:04;;;;;;;11.30;6.25;;;13.80;99.90;;;;;;5072882;28;20014;-47
2022/08/27 03:25:30;;;;;;;10.60;6.47;;;13.80;99.90;;;;;;5072743;28;20123;-47
2022/08/27 03:27:55;;;;;;;10.65;5.85;;;13.80;99.90;;;;;;5072787;28;20033;-46
2022/08/27 03:30:22;;;;;;;8.77;5.60;;;13.70;99.90;;;;;;5072863;28;20037;-46
2022/08/27 03:32:49;;;;;;;9.13;5.88;;;13.80;99.90;;;;;;5072577;28;20115;-47
2022/08/27 03:35:15;;;;;;;12.52;6.30;;;13.70;99.90;;;;;;5072759;28;20045;-47
2022/08/27 03:37:41;;;;;;;10.10;5.90;;;13.70;99.90;;;;;;5072642;28;20036;-48
2022/08/27 03:40:08;;;;;;;9.55;6.72;;;13.70;99.90;;;;;;5071194;28;20044;-45
2022/08/27 03:42:35;;;;;;;10.27;6.68;;;13.70;99.90;;;;;;5072227;28;20506;-48
2022/08/27 03:45:01;;;;;;;9.57;7.00;;;13.70;99.90;;;;;;5072188;28;20044;-49
2022/08/27 03:47:26;;;;;;;11.73;6.45;;;13.70;99.90;;;;;;5072406;28;20047;-45
2022/08/27 03:49:52;;;;;;;10.20;6.05;;;13.80;99.90;;;;;;5072293;28;20040;-46
2022/08/27 03:52:18;;;;;;;9.38;6.95;;;13.60;99.90;;;;;;5072228;28;20075;-46
2022/08/27 03:54:44;;;;;;;8.70;6.32;;;13.60;99.90;;;;;;5070666;28;20087;-46
2022/08/27 03:57:11;;;;;;;10.38;6.47;;;13.50;99.90;;;;;;5072339;28;20047;-49
2022/08/27 03:59:37;;;;;;;11.00;7.15;;;13.50;99.90;;;;;;5071641;28;20058;-47
2022/08/27 04:02:03;;;;;;;10.40;6.78;;;13.50;99.90;;;;;;5072108;28;20046;-46
2022/08/27 04:04:29;;;;;;;10.35;6.53;;;13.60;99.90;;;;;;5071875;28;20123;-46
2022/08/27 04:06:56;;;;;;;11.00;7.13;;;13.40;99.90;;;;;;5071895;28;20046;-45
2022/08/27 04:09:22;;;;;;;13.50;7.70;;;13.40;99.90;;;;;;5071455;28;20098;-49
2022/08/27 04:11:47;;;;;;;10.55;7.05;;;13.40;99.90;;;;;;5071950;28;20479;-46
2022/08/27 04:14:13;;;;;;;10.15;7.05;;;13.30;99.90;;;;;;5072099;28;20056;-45
2022/08/27 04:16:39;;;;;;;10.25;6.40;;;13.40;99.90;;;;;;5071393;28;20071;-47
2022/08/27 04:19:05;;;;;;;10.30;6.60;;;13.40;99.90;;;;;;5071758;28;20044;-45
2022/08/27 04:21:32;;;;;;;12.38;6.53;;;13.40;99.90;;;;;;5071652;28;20041;-49
2022/08/27 04:23:58;;;;;;;11.07;6.85;;;13.30;99.90;;;;;;5071455;28;20408;-45
2022/08/27 04:26:25;;;;;;;8.70;6.80;;;13.30;99.90;;;;;;5071422;28;20392;-45
2022/08/27 04:28:50;;;;;;;9.90;7.13;;;13.30;99.90;;;;;;5071021;28;20068;-50
2022/08/27 04:31:16;;;;;;;10.52;6.57;;;13.30;99.90;;;;;;5070071;28;20083;-47
2022/08/27 04:33:42;;;;;;;11.57;6.57;;;13.40;99.90;;;;;;5071036;28;20387;-48
2022/08/27 04:36:09;;;;;;;11.25;7.40;;;13.30;99.90;;;;;;5071516;28;20044;-48
2022/08/27 04:38:35;;;;;;;10.30;6.35;;;13.30;99.90;;;;;;5070998;28;20281;-46
2022/08/27 04:41:18;;;;;;;10.00;6.25;;;13.40;99.90;;;;;;5070957;28;20048;-48
2022/08/27 04:43:45;;;;;;;9.30;6.28;;;13.30;99.90;;;;;;5071177;28;20040;-47
2022/08/27 04:46:11;;;;;;;10.00;6.85;;;13.30;99.90;;;;;;5069499;28;20056;-46
2022/08/27 04:48:36;;;;;;;11.68;6.40;;;13.40;99.90;;;;;;5071240;28;20036;-48
2022/08/27 04:51:03;;;;;;;9.85;6.82;;;13.30;99.90;;;;;;5071263;28;20399;-51
2022/08/27 04:53:29;;;;;;;8.82;5.88;;;13.40;99.90;;;;;;5071247;28;20034;-46
2022/08/27 04:55:56;;;;;;;10.43;6.18;;;13.30;99.90;;;;;;5070834;28;20082;-48
2022/08/27 04:58:23;;;;;;;10.93;7.22;;;13.40;99.90;;;;;;5071008;28;20495;-47
2022/08/27 05:00:55;;;;;;;10.35;6.70;;;13.40;99.90;;;;;;5071297;28;20381;-46
2022/08/27 05:03:22;;;;;;;9.80;5.70;;;13.40;99.90;;;;;;5071114;28;20037;-46
2022/08/27 05:05:49;;;;;;;11.13;6.47;;;13.40;99.90;;;;;;5069395;28;20091;-48
2022/08/27 05:08:16;;;;;;;9.20;5.63;;;13.30;99.90;;;;;;5070850;28;20039;-49
2022/08/27 05:10:45;;;;;;;9.23;6.45;;;13.40;99.90;;;;;;5070170;28;20090;-48
2022/08/27 05:13:11;;;;;;;10.73;6.20;;;13.40;99.90;;;;;;5070720;28;20123;-49
2022/08/27 05:15:40;;;;;;;10.25;5.70;;;13.40;99.90;;;;;;5070987;28;20036;-46
2022/08/27 05:18:07;;;;;;;10.88;6.38;;;13.40;99.90;;;;;;5070479;28;20380;-46
2022/08/27 05:20:47;;;;;;;10.77;5.95;;;13.40;99.90;;;;;;5070741;28;20067;-47
2022/08/27 05:23:16;;;;;;;10.93;6.47;;;13.50;99.90;;;;;;5070460;28;20040;-46
2022/08/27 05:25:44;;;;;;;8.98;5.55;;;13.50;99.90;;;;;;5070360;28;20032;-49
2022/08/27 05:28:12;;;;;;;8.52;5.72;;;13.40;99.90;;;;;;5069226;28;20090;-47
2022/08/27 05:30:45;;;;;;;10.88;6.38;;;13.50;99.90;;;;;;5069239;28;20481;-48
2022/08/27 05:33:13;;;;;;;8.82;6.03;;;13.50;99.90;;;;;;5070258;28;20037;-50
2022/08/27 05:35:41;;;;;;;9.02;6.55;;;13.50;99.90;;;;;;5070331;28;20029;-48
2022/08/27 05:38:07;;;;;;;9.57;6.88;;;13.50;99.90;;;;;;5070068;28;20041;-50
2022/08/27 05:40:33;;;;;;;9.23;6.65;;;13.50;99.90;;;;;;5068424;28;20063;-46
2022/08/27 05:42:59;;;;;;;9.13;6.13;;;13.60;99.90;;;;;;5070252;28;20040;-47
2022/08/27 05:45:25;;;;;;;9.88;6.25;;;13.60;99.90;;;;;;5069626;28;20094;-48
2022/08/27 05:47:50;;;;;;;9.75;6.00;;;13.70;99.90;;;;;;5069786;28;20041;-48
2022/08/27 05:50:16;;;;;;;9.75;6.65;;;13.70;99.90;;;;;;5070293;28;20032;-46
2022/08/27 05:52:42;;;;;;;8.80;6.28;;;13.70;99.90;;;;;;5070270;28;20039;-46
2022/08/27 05:55:08;;;;;;;9.27;5.97;;;13.70;99.90;;;;;;5070049;28;20086;-45
2022/08/27 05:57:34;;;;;;;10.43;6.28;;;13.80;99.90;;;;;;5070306;28;20484;-46
2022/08/27 06:02:45;;;;;;;10.93;6.13;;;13.90;99.90;;;;;;5070378;28;20094;-46
2022/08/27 06:05:11;;;;;;;9.65;6.47;;;14.00;99.90;;;;;;5070047;28;20037;-46
2022/08/27 06:07:36;;;;;;;10.77;7.05;;;14.10;99.90;;;;;;5069926;28;20063;-49
2022/08/27 06:10:06;;;;;;;10.00;6.32;;;14.30;99.90;;;;;;5051619;28;20036;-46
2022/08/27 06:12:33;;;;;;;9.10;6.50;;;14.30;99.90;;;;;;5070162;28;20582;-45
2022/08/27 06:14:59;;;;;;;10.60;5.93;;;14.30;99.90;;;;;;5070087;28;20044;-47
2022/08/27 06:17:25;;;;;;;10.77;6.07;;;14.50;99.90;;;;;;5070073;28;20101;-52
2022/08/27 06:19:51;;;;;;;9.15;6.28;;;14.50;99.90;;;;;;5069727;28;20443;-48
2022/08/27 06:22:17;;;;;;;8.45;6.13;;;14.70;99.90;;;;;;5069297;28;20056;-46
2022/08/27 06:24:42;;;;;;;9.68;6.15;;;14.70;99.90;;;;;;5070231;28;20033;-47
2022/08/27 06:27:11;;;;;;;7.93;5.90;;;14.90;99.90;;;;;;5069621;28;20047;-46
2022/08/27 06:29:37;;;;;;;10.68;5.97;;;15.00;99.90;;;;;;5069478;28;20032;-45
2022/08/27 06:32:03;;;;;;;10.45;5.80;;;15.10;99.90;;;;;;5068840;28;20036;-46
2022/08/27 06:34:29;;;;;;;8.40;5.05;;;15.20;99.90;;;;;;5069873;28;20036;-51
2022/08/27 06:36:54;;;;;;;8.27;5.07;;;15.30;99.90;;;;;;5069939;28;20636;-47
2022/08/27 06:39:20;;;;;;;9.27;4.50;;;15.60;99.90;;;;;;5069489;28;20494;-47
2022/08/27 06:41:49;;;;;;;8.48;4.70;;;15.70;99.90;;;;;;5068486;28;20464;-46
2022/08/27 06:44:15;;;;;;;7.63;4.28;;;15.70;99.90;;;;;;5069518;28;20032;-46
2022/08/27 06:46:41;;;;;;;6.55;3.53;;;16.00;99.90;;;;;;5069192;28;20491;-48
2022/08/27 06:49:08;;;;;;;7.45;3.63;;;16.10;99.90;;;;;;5068287;28;20040;-46
2022/08/27 06:51:37;;;;;;;7.88;3.97;;;16.10;99.90;;;;;;5069639;28;20032;-46
2022/08/27 06:54:05;;;;;;;7.82;3.22;;;16.20;99.90;;;;;;5068326;28;20115;-51
2022/08/27 06:56:32;;;;;;;10.60;3.60;;;16.30;99.90;;;;;;5072570;28;20028;-49
2022/08/27 06:59:01;;;;;;;6.88;2.70;;;16.50;99.90;;;;;;5073598;28;20051;-47
2022/08/27 07:01:30;;;;;;;7.03;2.85;;;16.50;99.90;;;;;;5073339;28;20032;-47
2022/08/27 07:03:58;;;;;;;7.00;3.17;;;16.60;99.90;;;;;;5073313;28;20456;-47
2022/08/27 07:06:25;;;;;;;8.25;2.40;;;16.80;99.90;;;;;;5072764;28;20041;-46
2022/08/27 07:08:51;;;;;;;6.50;2.67;;;16.90;99.90;;;;;;5071716;28;20116;-48
2022/08/27 07:11:17;;;;;;;7.25;2.60;;;16.90;99.90;;;;;;5070165;28;20119;-49
2022/08/27 07:13:46;;;;;;;5.70;2.30;;;16.90;99.90;;;;;;5073390;28;20471;-49
2022/08/27 07:16:13;;;;;;;6.10;2.55;;;17.00;99.90;;;;;;5072592;28;20044;-48
2022/08/27 07:18:39;;;;;;;6.80;2.00;;;17.10;99.90;;;;;;5072807;28;20045;-45
2022/08/27 07:21:06;;;;;;;7.43;2.13;;;17.20;99.90;;;;;;5071356;28;20052;-46
2022/08/27 07:23:34;;;;;;;6.60;2.13;;;17.40;99.90;;;;;;5073399;28;20472;-45
2022/08/27 07:26:01;;;;;;;6.22;1.95;;;17.60;99.90;;;;;;5072769;28;20480;-49
2022/08/27 07:28:27;;;;;;;6.53;2.08;;;17.60;99.90;;;;;;5072574;28;20036;-49
2022/08/27 07:30:53;;;;;;;7.05;2.08;;;17.70;99.90;;;;;;5072978;28;20062;-50
2022/08/27 07:33:19;;;;;;;7.07;1.77;;;17.90;99.90;;;;;;5071236;28;20044;-47
2022/08/27 07:35:47;;;;;;;7.40;1.95;;;18.00;99.90;;;;;;5072533;28;20041;-50
2022/08/27 07:38:14;;;;;;;7.07;1.88;;;17.90;99.90;;;;;;5072657;28;20044;-47
2022/08/27 07:40:40;;;;;;;9.23;2.63;;;18.10;99.90;;;;;;5071979;28;20040;-47
2022/08/27 07:45:54;;;;;;;6.82;1.98;;;18.00;99.90;;;;;;5071924;28;20060;-48
2022/08/27 07:48:24;;;;;;;5.63;1.80;;;17.90;99.90;;;;;;5072628;28;20044;-45
2022/08/27 07:50:51;;;;;;;7.80;2.13;;;17.90;99.90;;;;;;5072586;28;20043;-49
2022/08/27 07:53:17;;;;;;;5.55;2.40;;;17.90;99.90;;;;;;5072492;28;20072;-49
2022/08/27 07:55:44;;;;;;;5.53;1.80;;;18.00;99.90;;;;;;5072122;28;20047;-48
2022/08/27 07:58:10;;;;;;;6.70;2.10;;;18.00;99.90;;;;;;5070925;28;20045;-51
2022/08/27 08:00:36;;;;;;;6.25;2.05;;;18.10;99.90;;;;;;5072334;28;20101;-51
2022/08/27 08:03:02;;;;;;;5.10;2.15;;;18.00;99.90;;;;;;5072209;28;20032;-46
2022/08/27 08:05:28;;;;;;;6.32;1.75;;;18.10;99.90;;;;;;5071988;28;20033;-49
2022/08/27 08:07:54;;;;;;;6.78;1.73;;;18.10;99.90;;;;;;5070913;28;20094;-49
2022/08/27 08:10:22;;;;;;;7.65;2.10;;;18.20;99.90;;;;;;5071780;28;20476;-50
2022/08/27 08:12:48;;;;;;;4.85;1.67;;;18.40;99.90;;;;;;5072254;28;20036;-50
2022/08/27 08:15:14;;;;;;;6.88;1.63;;;18.50;99.90;;;;;;5071874;28;20040;-47
2022/08/27 08:17:40;;;;;;;4.85;1.85;;;18.60;99.90;;;;;;5069105;28;20037;-52
2022/08/27 08:20:08;;;;;;;5.97;1.52;;;18.70;99.90;;;;;;5071686;28;20033;-46
2022/08/27 08:22:34;;;;;;;8.98;1.67;;;18.60;99.90;;;;;;5071944;28;20498;-45
2022/08/27 08:25:00;;;;;;;6.57;1.63;;;18.70;99.90;;;;;;5070618;28;20041;-49
2022/08/27 08:27:26;;;;;;;9.02;1.92;;;18.70;99.90;;;;;;5071773;28;20098;-47
2022/08/27 08:29:52;;;;;;;6.13;1.50;;;18.80;99.90;;;;;;5071956;28;20063;-50
2022/08/27 08:32:19;;;;;;;5.47;1.48;;;18.80;99.90;;;;;;5071624;28;20037;-49
2022/08/27 08:34:45;;;;;;;7.82;1.95;;;18.90;99.90;;;;;;5071699;28;20036;-45
2022/08/27 08:37:12;;;;;;;4.40;1.23;;;18.90;99.90;;;;;;5071635;28;20059;-48
2022/08/27 08:39:37;;;;;;;4.95;1.50;;;19.00;99.90;;;;;;5071115;28;20048;-46
2022/08/27 08:42:06;;;;;;;4.10;1.27;;;19.10;99.90;;;;;;5071238;28;20498;-48
2022/08/27 08:44:37;;;;;;;5.20;1.80;;;19.20;99.90;;;;;;5071119;28;20040;-46
2022/08/27 08:47:31;;;;;;;6.55;1.75;;;19.20;99.90;;;;;;5071376;28;20080;-49
2022/08/27 08:50:08;;;;;;;;;;;19.20;99.90;;;;;;5071487;28;20115;-46
2022/08/27 08:52:41;;;;;;;5.43;1.35;;;19.10;99.90;;;;;;5071298;28;19920;-48
2022/08/27 08:55:10;;;;;;;8.82;1.88;;;19.10;99.90;;;;;;5071184;28;20051;-48
2022/08/27 08:57:47;;;;;;;5.93;1.50;;;19.10;99.90;;;;;;5069620;28;20041;-46
2022/08/27 09:00:13;;;;;;;6.63;1.40;;;19.20;99.90;;;;;;5069625;28;20071;-47
2022/08/27 09:02:42;;;;;;;5.93;1.73;;;19.10;99.90;;;;;;5069800;28;20094;-49
2022/08/27 09:05:08;;;;;;;7.00;1.85;;;19.10;99.90;;;;;;5069615;28;20077;-49
2022/08/27 09:07:49;;;;;;;5.32;1.65;;;19.10;99.90;;;;;;5070246;28;20157;-47
2022/08/27 09:10:25;;;;;;;8.30;1.98;;;19.20;99.90;;;;;;5070335;28;20243;-47
2022/08/27 09:12:54;;;;;;;5.68;1.70;;;19.20;99.90;;;;;;5070884;28;20032;-46
2022/08/27 09:15:23;;;;;;;5.72;1.45;;;19.10;99.90;;;;;;5069200;28;20037;-48
2022/08/27 09:17:50;;;;;;;6.13;1.42;;;19.10;99.90;;;;;;5070519;28;20128;-47
2022/08/27 09:20:20;;;;;;;6.68;1.67;;;19.10;99.90;;;;;;5070477;28;20041;-48
2022/08/27 09:23:04;;;;;;;5.15;1.63;;;19.20;99.90;;;;;;5070385;28;20032;-47
2022/08/27 09:25:33;;;;;;;6.15;1.45;;;19.20;99.90;;;;;;5070600;28;20037;-51
2022/08/27 09:28:03;;;;;;;4.82;1.40;;;19.20;99.90;;;;;;5069992;28;20041;-47
2022/08/27 09:30:31;;;;;;;6.95;1.45;;;19.30;99.90;;;;;;5069105;28;20079;-46
2022/08/27 09:33:00;;;;;;;7.72;1.80;;;19.30;99.90;;;;;;5070568;28;20468;-47
2022/08/27 09:35:32;;;;;;;7.32;1.60;;;19.40;99.90;;;;;;5070501;28;20142;-48
2022/08/27 09:38:01;;;;;;;5.38;1.50;;;19.50;99.90;;;;;;5070363;28;20055;-49
2022/08/27 09:40:31;;;;;;;9.30;1.40;;;19.60;99.90;;;;;;5069913;28;20061;-46
2022/08/27 09:43:06;;;;;;;4.93;1.50;;;19.60;99.90;;;;;;5070230;28;20036;-47
2022/08/27 09:45:33;;;;;;;8.80;1.42;;;19.70;99.90;;;;;;5070029;28;20110;-50
2022/08/27 09:48:06;;;;;;;7.53;1.67;;;19.80;99.90;;;;;;5069891;28;20068;-47
2022/08/27 09:50:46;;;;;;;8.65;1.70;;;19.70;99.90;;;;;;5070250;28;20040;-46
2022/08/27 09:53:34;;;;;;;5.30;1.27;;;19.80;99.90;;;;;;5069853;28;20036;-47
2022/08/27 09:56:02;;;;;;;7.20;1.50;;;19.90;99.90;;;;;;5070207;28;20152;-46
2022/08/27 09:58:44;;;;;;;5.65;1.50;;;20.00;99.90;;;;;;5070369;28;20133;-48
2022/08/27 10:01:17;;;;;;;3.97;1.10;;;20.00;99.90;;;;;;5070211;28;20040;-49
2022/08/27 10:03:43;;;;;;;5.67;1.40;;;20.10;99.90;;;;;;5070310;28;20063;-48
2022/08/27 10:06:09;;;;;;;6.47;1.20;;;20.20;99.90;;;;;;5069916;28;20386;-47
2022/08/27 10:08:49;;;;;;;5.93;1.45;;;20.20;99.90;;;;;;5069829;28;20047;-47
2022/08/27 10:11:32;;;;;;;5.93;1.13;;;20.30;99.90;;;;;;5069744;28;20037;-45
2022/08/27 10:14:22;;;;;;;3.63;0.93;;;20.30;99.90;;;;;;5068721;28;20067;-47
2022/08/27 10:16:51;;;;;;;10.00;2.20;;;20.30;99.90;;;;;;5067450;28;20642;-46
2022/08/27 10:19:41;;;;;;;6.05;1.40;;;20.40;99.90;;;;;;5069756;28;20040;-47
2022/08/27 10:22:40;;;;;;;5.20;1.48;;;20.40;99.90;;;;;;5068325;28;20120;-47
2022/08/27 10:25:24;;;;;;;5.00;1.50;;;20.60;99.90;;;;;;5069506;28;20047;-48
2022/08/27 10:27:57;;;;;;;;;;;20.70;99.90;;;;;;5070314;28;20036;-48
2022/08/27 10:30:42;;;;;;;;;;;20.70;99.90;;;;;;5071760;28;20363;-47
2022/08/27 10:33:19;;;;;;;;;;;20.80;99.90;;;;;;5074123;28;19924;-47
2022/08/27 10:35:47;;;;;;;;;;;20.90;99.90;;;;;;5074205;28;19920;-48
2022/08/27 10:38:28;;;;;;;;;;;20.80;99.90;;;;;;5074104;28;19980;-47
2022/08/27 10:40:57;;;;;;;;;;;20.80;99.90;;;;;;5072225;28;20013;-46
2022/08/27 10:43:26;;;;;;;;;;;20.90;99.90;;;;;;5073941;28;19916;-46
2022/08/27 10:46:12;;;;;;;;;;;21.00;99.90;;;;;;5073667;28;19943;-47
2022/08/27 10:48:50;;;;;;;;;;;21.10;99.90;;;;;;5066307;28;19982;-47
2022/08/27 10:51:19;;;;;;;;;;;21.30;99.90;;;;;;5072797;28;20358;-48
2022/08/27 10:53:54;;;;;;;;;;;21.40;99.90;;;;;;5074160;28;19924;-48
2022/08/27 10:56:38;;;;;;;;;;;21.50;99.80;;;;;;5073967;28;20390;-49
2022/08/27 10:59:22;;;;;;;;;;;21.50;99.30;;;;;;5072879;28;19920;-50
2022/08/27 11:02:01;;;;;;;;;;;21.50;99.60;;;;;;5073612;28;20295;-48
2022/08/27 11:04:29;;;;;;;;;;;21.50;99.30;;;;;;5074022;28;20291;-49
2022/08/27 11:07:15;;;;;;;;;;;21.60;99.30;;;;;;5073173;28;19920;-49
2022/08/27 11:09:53;;;;;;;;;;;21.70;99.90;;;;;;5051749;28;19927;-49
2022/08/27 11:12:32;;;;;;;;;;;21.60;99.10;;;;;;5073224;28;20547;-48
2022/08/27 11:15:13;;;;;;;;;;;21.60;99.20;;;;;;5072148;28;19924;-51
2022/08/27 11:17:54;;;;;;;;;;;21.60;99.50;;;;;;5072969;28;19962;-46
2022/08/27 11:20:28;;;;;;;;;;;21.50;99.40;;;;;;5072062;28;19916;-48
2022/08/27 11:23:05;;;;;;;;;;;21.50;99.40;;;;;;5073290;28;19916;-49
2022/08/27 11:25:57;;;;;;;;;;;21.50;99.50;;;;;;5055298;28;20015;-47
2022/08/27 11:28:36;;;;;;;;;;;21.40;99.10;;;;;;5070887;28;19959;-47
2022/08/27 11:31:06;;;;;;;;;;;21.60;99.60;;;;;;5073258;28;19925;-46
2022/08/27 11:33:39;;;;;;;;;;;21.60;99.30;;;;;;5072961;28;19927;-46
2022/08/27 11:36:05;;;;;;;;;;;21.80;99.30;;;;;;5073015;28;19924;-47
2022/08/27 11:38:43;;;;;;;;;;;21.90;98.90;;;;;;5072957;28;19927;-49
2022/08/27 11:41:27;;;;;;;;;;;21.90;98.70;;;;;;5071898;28;19917;-49
2022/08/27 11:43:53;;;;;;;;;;;21.90;98.40;;;;;;5073075;28;19934;-48
2022/08/27 11:46:23;;;;;;;;;;;22.10;98.90;;;;;;5072355;28;19935;-46
2022/08/27 11:48:59;;;;;;;;;;;21.90;97.80;;;;;;5073135;28;19994;-48
2022/08/27 11:51:36;;;;;;;;;;;22.00;98.20;;;;;;5071169;28;20045;-49
2022/08/27 11:54:05;;;;;;;;;;;22.10;96.90;;;;;;5072889;28;19916;-48
2022/08/27 11:56:39;;;;;;;;;;;22.10;97.30;;;;;;5071664;28;19924;-47
2022/08/27 11:59:20;;;;;;;;;;;22.30;97.50;;;;;;5071292;28;19973;-48
2022/08/27 12:01:45;;;;;;;;;;;22.10;97.00;;;;;;5071413;28;19920;-50
2022/08/27 12:04:20;;;;;;;;;;;22.40;97.90;;;;;;5072369;28;19924;-48
2022/08/27 12:06:50;;;;;;;;;;;22.50;97.50;;;;;;5072846;28;19974;-49
2022/08/27 12:09:19;;;;;;;;;;;22.40;97.70;;;;;;5072804;28;19927;-48
2022/08/27 12:12:00;;;;;;;;;;;22.50;98.00;;;;;;5072265;28;19916;-49
2022/08/27 12:14:25;;;;;;;;;;;22.50;97.80;;;;;;5072739;28;19924;-50
2022/08/27 12:17:07;;;;;;;;;;;22.50;98.00;;;;;;5071224;28;20426;-50
2022/08/27 12:19:36;;;;;;;;;;;22.60;97.90;;;;;;5072307;28;19916;-48
2022/08/27 12:22:01;;;;;;;;;;;22.70;97.60;;;;;;5054151;28;19973;-49
2022/08/27 12:24:33;;;;;;;;;;;22.60;97.50;;;;;;5071903;28;19920;-49
2022/08/27 12:27:00;;;;;;;;;;;22.70;97.30;;;;;;5072305;28;19928;-48
2022/08/27 12:29:31;;;;;;;;;;;22.70;97.50;;;;;;5072267;28;19925;-52
2022/08/27 12:32:03;;;;;;;;;;;22.90;97.40;;;;;;5071915;28;19917;-48
2022/08/27 12:34:30;;;;;;;;;;;22.90;96.50;;;;;;5072176;28;19989;-49
2022/08/27 12:36:56;;;;;;;;;;;22.80;96.40;;;;;;5071463;28;20011;-48
2022/08/27 12:39:28;;;;;;;;;;;23.00;97.10;;;;;;5071237;28;20085;-50
2022/08/27 12:41:54;;;;;;;;;;;23.00;96.20;;;;;;5071648;28;20306;-51
2022/08/27 12:44:27;;;;;;;;;;;23.10;95.60;;;;;;5071515;28;19916;-47
2022/08/27 12:46:57;;;;;;;;;;;22.90;95.80;;;;;;5071442;28;19920;-48
2022/08/27 12:49:26;;;;;;;;;;;23.00;96.60;;;;;;5072028;28;20046;-50
2022/08/27 12:51:53;;;;;;;;;;;23.20;95.40;;;;;;5070355;28;20072;-48
2022/08/27 12:54:21;;;;;;;;;;;23.70;95.50;;;;;;5071659;28;19927;-49
2022/08/27 12:56:54;;;;;;;;;;;24.20;95.00;;;;;;5071465;28;19916;-52
2022/08/27 12:59:38;;;;;;;;;;;24.10;94.70;;;;;;5071503;28;20040;-49
2022/08/27 13:02:19;;;;;;;;;;;24.40;93.90;;;;;;5071232;28;20015;-47
2022/08/27 13:04:46;;;;;;;;;;;24.30;93.20;;;;;;5071590;28;20329;-46
2022/08/27 13:07:23;;;;;;;;;;;24.40;93.30;;;;;;5070859;28;19921;-48
2022/08/27 13:09:49;;;;;;;;;;;24.20;92.70;;;;;;5070992;28;20398;-49
2022/08/27 13:12:16;;;;;;;;;;;24.20;92.30;;;;;;5069926;28;19971;-52
2022/08/27 13:14:41;;;;;;;;;;;24.40;92.20;;;;;;5071053;28;19916;-49
2022/08/27 13:17:14;;;;;;;;;;;24.20;91.90;;;;;;5071283;28;19924;-50
2022/08/27 13:19:56;;;;;;;;;;;24.30;92.10;;;;;;5071245;28;20386;-50
2022/08/27 13:22:23;;;;;;;;;;;24.70;92.30;;;;;;5071210;28;20417;-48